createdAt,value
2023-05-23T00:04:46.226Z,14.48
2023-05-23T00:09:48.282Z,14.95
2023-05-23T00:14:50.674Z,14.32
2023-05-23T00:19:52.952Z,11.13
2023-05-23T00:24:54.774Z,11.13
2023-05-23T00:29:56.836Z,12.95
2023-05-23T00:34:58.766Z,12.52
2023-05-23T00:40:01.188Z,12.85
2023-05-23T00:45:03.727Z,12.90
2023-05-23T00:50:11.761Z,12.23
2023-05-23T00:55:14.661Z,13.75
2023-05-23T01:00:17.208Z,13.85
2023-05-23T01:05:20.140Z,13.32
2023-05-23T01:10:27.271Z,12.10
2023-05-23T01:15:51.554Z,12.52
2023-05-23T01:21:01.613Z,10.65
2023-05-23T01:26:18.765Z,12.82
2023-05-23T01:31:21.990Z,12.00
2023-05-23T01:36:23.859Z,12.60
2023-05-23T01:41:26.242Z,12.20
2023-05-23T01:46:29.908Z,12.40
2023-05-23T01:51:32.136Z,10.95
2023-05-23T01:56:34.729Z,11.18
2023-05-23T02:01:38.457Z,12.23
2023-05-23T02:06:41.763Z,11.93
2023-05-23T02:11:43.791Z,12.32
2023-05-23T02:16:46.000Z,11.60
2023-05-23T02:21:47.782Z,11.73
2023-05-23T02:26:49.534Z,13.00
2023-05-23T02:31:51.469Z,12.50
2023-05-23T02:36:54.024Z,12.52
2023-05-23T02:41:55.783Z,11.95
2023-05-23T02:46:57.932Z,13.02
2023-05-23T02:51:59.720Z,11.55
2023-05-23T02:57:01.477Z,13.02
2023-05-23T03:02:03.241Z,12.77
2023-05-23T03:07:11.591Z,13.32
2023-05-23T03:12:18.876Z,12.52
2023-05-23T03:17:21.132Z,12.30
2023-05-23T03:22:22.954Z,12.40
2023-05-23T03:27:24.728Z,12.88
2023-05-23T03:32:26.778Z,11.95
2023-05-23T03:37:28.833Z,12.32
2023-05-23T03:42:31.102Z,13.07
2023-05-23T03:47:32.899Z,12.80
2023-05-23T03:52:34.770Z,12.20
2023-05-23T03:57:36.525Z,13.05
2023-05-23T04:02:40.555Z,13.43
2023-05-23T04:07:43.055Z,12.70
2023-05-23T04:12:45.160Z,12.90
2023-05-23T04:17:46.988Z,12.93
2023-05-23T04:22:48.826Z,13.75
2023-05-23T04:27:50.634Z,11.95
2023-05-23T04:32:53.783Z,14.43
2023-05-23T04:37:56.847Z,14.63
2023-05-23T04:42:58.675Z,15.73
2023-05-23T04:48:00.480Z,16.90
2023-05-23T04:53:02.645Z,17.08
2023-05-23T04:58:04.723Z,17.23
2023-05-23T05:03:06.873Z,17.98
2023-05-23T05:08:09.046Z,17.77
2023-05-23T05:13:10.909Z,13.68
2023-05-23T05:18:13.591Z,15.25
2023-05-23T05:23:16.244Z,14.10
2023-05-23T05:28:18.237Z,15.13
2023-05-23T05:33:23.711Z,14.40
2023-05-23T05:38:25.548Z,14.98
2023-05-23T05:43:27.378Z,14.05
2023-05-23T05:48:29.205Z,16.48
2023-05-23T05:53:31.182Z,17.80
2023-05-23T05:58:33.076Z,20.23
2023-05-23T06:03:35.065Z,22.90
2023-05-23T06:08:37.168Z,30.10
2023-05-23T06:13:39.329Z,21.00
2023-05-23T06:18:41.548Z,21.33
2023-05-23T06:23:43.373Z,28.05
2023-05-23T06:28:45.341Z,27.33
2023-05-23T06:33:47.119Z,29.88
2023-05-23T06:38:48.915Z,29.90
2023-05-23T06:43:50.979Z,32.50
2023-05-23T06:49:02.671Z,32.30
2023-05-23T06:54:08.886Z,32.50
2023-05-23T06:59:11.063Z,29.63
2023-05-23T07:04:12.922Z,31.27
2023-05-23T07:09:14.790Z,28.92
2023-05-23T07:14:16.673Z,31.65
2023-05-23T07:19:18.619Z,32.22
2023-05-23T07:24:20.493Z,29.13
2023-05-23T07:29:22.497Z,32.53
2023-05-23T07:34:24.311Z,34.33
2023-05-23T07:39:27.912Z,32.42
2023-05-23T07:44:29.834Z,33.17
2023-05-23T07:49:31.673Z,32.78
2023-05-23T07:54:33.425Z,32.20
2023-05-23T07:59:36.125Z,34.15
2023-05-23T08:04:38.058Z,33.40
2023-05-23T08:09:40.842Z,31.52
2023-05-23T08:19:51.723Z,30.90
2023-05-23T08:24:53.463Z,30.73
2023-05-23T08:29:55.790Z,28.80
2023-05-23T08:34:57.704Z,27.80
2023-05-23T08:39:59.652Z,26.35
2023-05-23T08:45:01.602Z,21.95
2023-05-23T08:50:06.491Z,21.35
2023-05-23T08:55:09.574Z,20.35
2023-05-23T09:00:15.123Z,24.50
2023-05-23T09:05:17.124Z,16.17
2023-05-23T09:10:22.753Z,14.93
2023-05-23T09:15:26.095Z,13.68
2023-05-23T09:20:28.900Z,14.95
2023-05-23T09:25:30.813Z,11.80
2023-05-23T09:30:35.041Z,12.32
2023-05-23T09:35:43.259Z,12.20
2023-05-23T09:40:45.938Z,11.98
2023-05-23T09:45:48.147Z,11.38
2023-05-23T09:50:51.578Z,11.88
2023-05-23T09:55:56.201Z,11.82
2023-05-23T10:01:03.185Z,11.38
2023-05-23T10:06:10.478Z,12.00
2023-05-23T10:11:16.685Z,11.32
2023-05-23T10:16:34.235Z,13.27
2023-05-23T10:21:48.583Z,11.25
2023-05-23T10:26:50.755Z,12.32
2023-05-23T10:31:53.900Z,11.68
2023-05-23T10:37:05.301Z,13.02
2023-05-23T10:42:17.349Z,13.77
2023-05-23T10:47:31.257Z,13.65
2023-05-23T10:52:41.185Z,31.27
2023-05-23T10:57:44.140Z,13.50
2023-05-23T11:02:59.838Z,11.75
2023-05-23T11:08:16.217Z,11.43
2023-05-23T11:13:18.965Z,13.15
2023-05-23T11:18:31.072Z,9.27
2023-05-23T11:23:43.010Z,8.50
2023-05-23T11:28:58.516Z,7.20
2023-05-23T11:34:01.651Z,6.85
2023-05-23T11:39:04.498Z,6.47
2023-05-23T11:44:13.520Z,6.43
2023-05-23T11:49:15.406Z,5.93
2023-05-23T11:54:17.306Z,5.57
2023-05-23T11:59:19.272Z,5.70
2023-05-23T12:04:21.221Z,6.00
2023-05-23T12:09:23.269Z,6.00
2023-05-23T12:14:29.200Z,5.03
2023-05-23T12:19:31.168Z,5.55
2023-05-23T12:24:33.081Z,8.55
2023-05-23T12:29:37.677Z,5.75
2023-05-23T12:34:43.291Z,5.95
2023-05-23T12:39:47.973Z,6.65
2023-05-23T12:44:54.065Z,4.93
2023-05-23T12:49:56.097Z,5.20
2023-05-23T12:54:57.885Z,5.30
2023-05-23T12:59:59.661Z,4.45
2023-05-23T13:05:01.528Z,4.43
2023-05-23T13:10:03.357Z,4.10
2023-05-23T13:15:06.537Z,4.00
2023-05-23T13:20:09.676Z,4.10
2023-05-23T13:25:12.031Z,4.07
2023-05-23T13:30:14.001Z,4.15
2023-05-23T13:35:16.124Z,2.58
2023-05-23T13:40:19.717Z,3.25
2023-05-23T13:45:23.179Z,3.00
2023-05-23T13:50:25.207Z,2.60
2023-05-23T13:55:27.533Z,2.53
2023-05-23T14:00:30.091Z,2.72
2023-05-23T14:05:32.319Z,3.08
2023-05-23T14:10:34.223Z,2.13
2023-05-23T14:15:38.708Z,2.78
2023-05-23T14:20:40.879Z,2.70
2023-05-23T14:25:46.069Z,2.95
2023-05-23T14:30:47.929Z,2.60
2023-05-23T14:35:50.333Z,2.70
2023-05-23T14:40:52.440Z,3.13
2023-05-23T14:45:54.324Z,2.95
2023-05-23T14:50:56.195Z,2.50
2023-05-23T14:55:57.960Z,2.75
2023-05-23T15:00:59.744Z,4.85
2023-05-23T15:06:01.571Z,2.53
2023-05-23T15:11:03.305Z,2.92
2023-05-23T15:16:05.283Z,2.70
2023-05-23T15:21:07.359Z,2.60
2023-05-23T15:26:09.510Z,2.92
2023-05-23T15:31:11.357Z,2.60
2023-05-23T15:36:13.520Z,2.58
2023-05-23T15:41:16.816Z,2.67
2023-05-23T15:46:18.776Z,2.80
2023-05-23T15:51:23.501Z,2.58
2023-05-23T15:56:26.061Z,2.58
2023-05-23T16:01:27.982Z,2.80
2023-05-23T16:06:29.970Z,5.05
2023-05-23T16:11:31.923Z,3.60
2023-05-23T16:16:34.410Z,2.63
2023-05-23T16:21:36.681Z,2.50
2023-05-23T16:26:39.635Z,2.95
2023-05-23T16:31:41.596Z,2.63
2023-05-23T16:36:43.409Z,2.67
2023-05-23T16:41:45.249Z,2.75
2023-05-23T16:46:47.153Z,2.70
2023-05-23T16:51:48.997Z,2.72
2023-05-23T16:56:50.901Z,2.20
2023-05-23T17:01:53.257Z,1.90
2023-05-23T17:06:55.306Z,2.17
2023-05-23T17:11:57.149Z,1.80
2023-05-23T17:16:58.980Z,1.80
2023-05-23T17:22:01.067Z,1.90
2023-05-23T17:27:04.094Z,4.20
2023-05-23T17:32:06.626Z,2.50
2023-05-23T17:37:08.578Z,1.58
2023-05-23T17:42:10.411Z,1.80
2023-05-23T17:47:12.373Z,1.63
2023-05-23T17:52:14.964Z,1.60
2023-05-23T17:57:17.006Z,1.70
2023-05-23T18:02:18.873Z,1.92
2023-05-23T18:07:20.819Z,2.00
2023-05-23T18:12:22.758Z,1.45
2023-05-23T18:17:25.004Z,2.10
2023-05-23T18:22:27.025Z,1.65
2023-05-23T18:27:28.890Z,1.58
2023-05-23T18:32:31.502Z,1.90
2023-05-23T18:37:33.318Z,1.30
2023-05-23T18:42:35.625Z,1.50
2023-05-23T18:47:37.488Z,1.58
2023-05-23T18:52:39.395Z,1.42
2023-05-23T18:57:41.400Z,1.20
2023-05-23T19:02:45.305Z,1.60
2023-05-23T19:07:47.604Z,1.55
2023-05-23T19:12:49.326Z,1.80
2023-05-23T19:17:51.140Z,1.30
2023-05-23T19:22:53.074Z,1.40
2023-05-23T19:27:54.879Z,1.88
2023-05-23T19:32:56.740Z,1.77
2023-05-23T19:37:58.573Z,1.60
2023-05-23T19:43:00.356Z,1.60
2023-05-23T19:48:02.300Z,1.40
2023-05-23T19:53:04.262Z,6.47
2023-05-23T19:58:06.200Z,2.20
2023-05-23T20:03:08.416Z,2.00
2023-05-23T20:08:10.483Z,2.20
2023-05-23T20:13:12.423Z,2.00
2023-05-23T20:18:14.487Z,2.28
2023-05-23T20:23:16.282Z,2.47
2023-05-23T20:28:18.101Z,2.30
2023-05-23T20:33:20.313Z,2.30
2023-05-23T20:38:24.755Z,2.47
2023-05-23T20:43:26.522Z,1.88
2023-05-23T20:48:28.678Z,2.72
2023-05-23T20:53:31.421Z,2.40
2023-05-23T20:58:33.734Z,2.70
2023-05-23T21:03:35.768Z,3.10
2023-05-23T21:08:37.622Z,3.30
2023-05-23T21:13:40.071Z,3.08
2023-05-23T21:18:41.894Z,3.03
2023-05-23T21:23:44.075Z,3.05
2023-05-23T21:28:46.061Z,4.32
2023-05-23T21:33:48.900Z,3.00
2023-05-23T21:38:50.661Z,5.88
2023-05-23T21:43:52.668Z,3.22
2023-05-23T21:48:54.453Z,2.53
2023-05-23T21:53:56.131Z,2.80
2023-05-23T21:58:57.893Z,2.75
2023-05-23T22:03:59.989Z,3.03
2023-05-23T22:09:01.956Z,3.42
2023-05-23T22:14:04.149Z,2.67
2023-05-23T22:19:07.361Z,2.78
2023-05-23T22:24:09.276Z,2.80
2023-05-23T22:29:11.614Z,3.20
2023-05-23T22:34:13.437Z,2.95
2023-05-23T22:39:15.268Z,3.00
2023-05-23T22:44:17.303Z,3.50
2023-05-23T22:49:22.411Z,3.55
2023-05-23T22:54:24.189Z,2.83
2023-05-23T22:59:26.007Z,3.15
2023-05-23T23:04:30.887Z,3.05
2023-05-23T23:09:34.354Z,2.22
2023-05-23T23:14:36.401Z,2.80
2023-05-23T23:19:38.935Z,3.60
2023-05-23T23:24:40.688Z,2.38
2023-05-23T23:29:42.478Z,4.05
2023-05-23T23:34:44.282Z,2.92
2023-05-23T23:39:46.201Z,2.88
2023-05-23T23:44:48.678Z,2.85
2023-05-23T23:49:50.519Z,2.70
2023-05-23T23:54:52.293Z,2.78
2023-05-23T23:59:54.528Z,3.38
